Impacts METAR Board
IDs:

KSTL - St Louis/Lambert Int, MO, US

Updated at: 1300 UTC 13 Dec 2018
Potential Impact None Slight Moderate High
Time 13/01Z 13/02Z 13/03Z 13/04Z 13/05Z 13/06Z 13/07Z 13/08Z 13/09Z 13/10Z 13/11Z 13/12Z 13/13Z
Temp41 38 36 37 37 35 35 36 40 39 40 38 43
Dewpt27 28 28 27 28 30 31 35 39 38 39 37 41
Altim29.93 29.93 29.93 29.93 29.94 29.94 29.94 29.94 29.94 29.93 29.92 29.92 29.94
VIS10 10 10 10 10 10 10 9 8 8 8 9 9
CIG-- -- -- -- -- -- -- -- 39 65 32 -- 29
CoverCLRCLRCLRCLRCLRFEWFEWFEWBKNBKNBKNSCTOVC
FltCatVFRVFRVFRVFRVFRVFRVFRVFRVFRVFRVFRVFRMVFR
WX--------------------------
WDir001201200100110100100110100100130
WSpd0 0 8 6 0 4 7 6 4 6 6 6 7
WGst-- -- -- -- -- -- -- -- -- -- -- -- --
Raw hourly METARs
KSTL 130051Z 00000KT 10SM CLR 05/M03 A2993 RMK AO2 SLP141 T00501028
KSTL 130151Z 00000KT 10SM CLR 03/M02 A2993 RMK AO2 SLP140 T00331022
KSTL 130251Z 12008KT 10SM CLR 02/M02 A2993 RMK AO2 SLP140 T00221022 51002
KSTL 130351Z 12006KT 10SM CLR 03/M03 A2993 RMK AO2 SLP140 T00281028
KSTL 130451Z 00000KT 10SM CLR 03/M02 A2994 RMK AO2 SLP143 T00281022
KSTL 130551Z 10004KT 10SM FEW035 02/M01 A2994 RMK AO2 SLP142 T00171011 10061 20017 401280017 50002
KSTL 130651Z 11007KT 10SM FEW035 02/M01 A2994 RMK AO2 SLP140 T00171006
KSTL 130751Z 10006KT 9SM FEW040 02/02 A2994 RMK AO2 SLP141 T00220017
KSTL 130851Z 10004KT 8SM BKN039 BKN048 04/04 A2994 RMK AO2 SLP142 T00440039 53003
KSTL 130951Z 11006KT 8SM FEW038 BKN065 04/03 A2993 RMK AO2 SLP138 T00390033
KSTL 131051Z 10006KT 8SM BKN032 04/04 A2992 RMK AO2 SLP136 T00440039
KSTL 131151Z 10006KT 9SM FEW031 SCT080 03/03 A2992 RMK AO2 SLP139 T00330028 10056 20011 55006
KSTL 131251Z 13007KT 9SM OVC029 06/05 A2994 RMK AO2 SLP143 T00610050



Page loaded:  13:20 UTC  |   05:20 AM Pacific  |   06:20 AM Mountain  |   07:20 AM Central  |   08:20 AM Eastern

 

ADVISORIES

FORECASTS

FORECASTS

OBSERVATIONS

USER TOOLS

ABOUT US